Terminal Aerodrome Forecast
Issued by NWS

Home | Current Version | Previous Version | Text Only | Print | Product List | Glossary On
Versions: 1 2 3 4 5 6 7 8 9 10 11 12 13 14 15 16 17 18
000
FTUS44 KJAN 302200 AAB
TAFHKS
TAF AMD
KHKS 302201Z 3022/3118 17009KT P6SM -RA BKN014 OVC024
     FM302300 17008KT 5SM SHRA VCTS SCT015 BKN025CB OVC060
     FM310300 16006KT 6SM BR VCSH SCT015 BKN025 OVC060
     FM310800 16005KT 5SM BR BKN015 OVC025
     FM311500 19007KT P6SM BKN015=

USA.gov is the U.S. government's official web portal to all federal, state and local government web resources and services.